Time;durP1;ratioP1;P1;durP2;ratioP2;P2;SDS_P1;SDS_P2;PMS_P1;PMS_P2;Temp;Humidity;BMP_temperature;BMP_pressure;BME280_temperature;BME280_humidity;BME280_pressure;Samples;Min_cycle;Max_cycle;Signal;HPM_P1;HPM_P2
2024/01/15 00:01:46;;;;;;;102.57;47.90;;;;;;;-0.14;84.84;99113.41;5133211;27;20950;-57
2024/01/15 00:04:13;;;;;;;111.20;48.57;;;;;;;-0.14;84.59;99106.41;5133388;27;20436;-57
2024/01/15 00:06:41;;;;;;;87.77;44.03;;;;;;;-0.29;84.63;99101.72;5133446;27;20856;-57
2024/01/15 00:09:08;;;;;;;93.83;43.67;;;;;;;-0.42;85.48;99095.97;5154003;27;20438;-57
2024/01/15 00:11:35;;;;;;;88.30;41.73;;;;;;;-0.66;85.62;99103.34;5153966;27;20470;-57
2024/01/15 00:14:03;;;;;;;88.73;41.40;;;;;;;-0.66;86.33;99087.72;5153849;27;20506;-57
2024/01/15 00:16:29;;;;;;;86.73;41.83;;;;;;;-0.66;87.38;99098.97;5153705;27;20483;-57
2024/01/15 00:18:56;;;;;;;81.07;40.23;;;;;;;-0.74;86.39;99100.59;5153858;27;20434;-58
2024/01/15 00:21:23;;;;;;;93.33;41.63;;;;;;;-0.75;86.66;99091.13;5153887;27;20510;-57
2024/01/15 00:23:51;;;;;;;86.40;39.73;;;;;;;-0.71;86.82;99089.91;5153746;27;20533;-57
2024/01/15 00:26:18;;;;;;;97.07;42.07;;;;;;;-0.67;86.77;99097.34;5137914;27;20439;-57
2024/01/15 00:28:44;;;;;;;96.20;40.77;;;;;;;-0.79;86.84;99097.56;5133061;27;20488;-58
2024/01/15 00:31:11;;;;;;;86.10;40.93;;;;;;;-0.96;86.60;99098.22;5132586;27;20528;-58
2024/01/15 00:33:38;;;;;;;80.90;37.73;;;;;;;-0.97;87.46;99096.59;5132862;27;20431;-58
2024/01/15 00:36:05;;;;;;;94.07;43.70;;;;;;;-0.91;88.34;99083.00;5131492;27;20447;-58
2024/01/15 00:38:31;;;;;;;98.63;45.03;;;;;;;-0.85;87.85;99080.69;5132833;28;20508;-58
2024/01/15 00:40:59;;;;;;;94.57;45.97;;;;;;;-0.79;87.72;99081.94;5132712;28;20468;-58
2024/01/15 00:43:26;;;;;;;91.83;42.50;;;;;;;-0.76;87.13;99082.50;5142531;27;20585;-57
2024/01/15 00:45:53;;;;;;;105.30;46.10;;;;;;;-0.71;86.81;99085.53;5153311;27;20439;-57
2024/01/15 00:48:19;;;;;;;93.20;43.53;;;;;;;-0.71;86.61;99085.53;5153510;27;20461;-58
2024/01/15 00:50:46;;;;;;;100.23;46.70;;;;;;;-0.73;86.47;99082.22;5153460;27;20474;-58
2024/01/15 00:53:13;;;;;;;97.50;45.33;;;;;;;-0.67;87.05;99080.84;5153145;27;20809;-58
2024/01/15 00:55:40;;;;;;;104.63;48.60;;;;;;;-0.75;86.93;99078.09;5139156;27;20444;-58
2024/01/15 00:58:08;;;;;;;118.40;52.73;;;;;;;-0.80;86.57;99075.09;5152388;27;20446;-58
2024/01/15 01:00:34;;;;;;;103.80;48.60;;;;;;;-0.83;87.15;99075.34;5153429;27;20494;-57
2024/01/15 01:03:01;;;;;;;97.63;48.47;;;;;;;-0.79;86.23;99076.72;5153418;27;20430;-58
2024/01/15 01:05:28;;;;;;;97.93;47.87;;;;;;;-0.73;85.90;99076.19;5153112;27;20442;-58
2024/01/15 01:07:54;;;;;;;88.23;42.80;;;;;;;-0.73;85.44;99071.78;5153356;27;20434;-58
2024/01/15 01:10:21;;;;;;;88.33;43.70;;;;;;;-0.72;85.71;99073.47;5146187;27;20523;-58
2024/01/15 01:12:48;;;;;;;83.40;43.17;;;;;;;-0.70;85.88;99066.31;5132267;28;20443;-57
2024/01/15 01:15:16;;;;;;;92.77;45.37;;;;;;;-0.71;85.51;99064.66;5132624;28;20845;-57
2024/01/15 01:17:42;;;;;;;89.40;44.97;;;;;;;-0.86;85.52;99065.22;5132641;28;20431;-59
2024/01/15 01:20:10;;;;;;;87.63;42.87;;;;;;;-0.80;86.29;99064.66;5132606;28;20492;-58
2024/01/15 01:22:37;;;;;;;82.23;41.97;;;;;;;-0.79;86.99;99064.53;5132594;28;20919;-57
2024/01/15 01:25:04;;;;;;;90.83;42.87;;;;;;;-0.85;86.39;99061.63;5132141;28;20856;-58
2024/01/15 01:27:31;;;;;;;87.60;42.57;;;;;;;-1.00;86.38;99065.56;5132280;27;21038;-58
2024/01/15 01:29:57;;;;;;;90.00;43.50;;;;;;;-0.99;86.77;99057.63;5152586;27;20443;-58
2024/01/15 01:32:25;;;;;;;92.90;45.37;;;;;;;-1.01;86.70;99058.72;5152832;27;20948;-58
2024/01/15 01:34:52;;;;;;;93.80;43.17;;;;;;;-1.10;86.40;99056.94;5152687;27;20963;-58
2024/01/15 01:37:19;;;;;;;80.53;39.50;;;;;;;-1.19;86.32;99055.09;5147937;27;20458;-58
2024/01/15 01:39:46;;;;;;;67.47;36.10;;;;;;;-1.35;85.88;99060.00;5132378;28;20796;-56
2024/01/15 01:42:13;;;;;;;68.27;36.63;;;;;;;-1.31;87.05;99053.59;5132350;28;20508;-57
2024/01/15 01:44:39;;;;;;;69.33;36.00;;;;;;;-1.22;87.09;99058.00;5133593;27;20430;-57
2024/01/15 01:47:07;;;;;;;72.03;38.17;;;;;;;-1.25;86.95;99058.25;5152866;27;20965;-57
2024/01/15 01:49:36;;;;;;;73.70;37.03;;;;;;;-1.20;87.40;99056.06;5156361;27;20430;-57
2024/01/15 01:52:06;;;;;;;68.53;37.37;;;;;;;-1.12;88.07;99045.78;5156531;27;20537;-58
2024/01/15 01:54:33;;;;;;;66.57;35.30;;;;;;;-1.10;87.56;99047.31;5156215;27;20491;-57
2024/01/15 01:57:02;;;;;;;65.87;34.03;;;;;;;-1.04;87.26;99043.34;5156298;27;20491;-57
2024/01/15 01:59:29;;;;;;;63.93;32.27;;;;;;;-1.03;87.49;99045.00;5146325;27;20500;-58
2024/01/15 02:01:56;;;;;;;67.27;32.23;;;;;;;-1.08;87.49;99040.19;5135789;27;20499;-57
2024/01/15 02:04:25;;;;;;;59.73;31.63;;;;;;;-0.96;87.44;99038.28;5136731;27;20435;-58
2024/01/15 02:06:53;;;;;;;61.37;30.07;;;;;;;-0.89;86.88;99052.44;5144453;27;20438;-57
2024/01/15 02:09:20;;;;;;;48.47;27.43;;;;;;;-0.92;86.45;99042.28;5155929;27;20929;-57
2024/01/15 02:11:47;;;;;;;50.10;27.87;;;;;;;-0.90;86.34;99048.19;5155948;27;20992;-57
2024/01/15 02:14:15;;;;;;;51.67;29.13;;;;;;;-0.89;86.54;99055.03;5155814;27;20495;-57
2024/01/15 02:16:41;;;;;;;53.63;28.57;;;;;;;-0.88;86.38;99051.47;5156153;27;20487;-57
2024/01/15 02:19:08;;;;;;;55.23;29.07;;;;;;;-0.90;86.20;99053.41;5156129;27;20446;-57
2024/01/15 02:21:35;;;;;;;50.37;28.87;;;;;;;-0.91;86.26;99049.13;5155789;27;20478;-57
2024/01/15 02:24:03;;;;;;;53.77;29.17;;;;;;;-0.97;87.04;99047.06;5136444;27;20914;-59
2024/01/15 02:26:30;;;;;;;52.83;28.13;;;;;;;-0.93;86.71;99043.25;5135226;27;20427;-58
2024/01/15 02:28:57;;;;;;;54.53;26.57;;;;;;;-0.98;86.86;99030.59;5135178;27;20447;-58
2024/01/15 02:31:23;;;;;;;53.10;29.37;;;;;;;-1.07;86.42;99033.19;5135033;27;20529;-58
2024/01/15 02:33:50;;;;;;;56.83;28.23;;;;;;;-1.20;87.30;99035.22;5134657;27;20498;-57
2024/01/15 02:36:17;;;;;;;54.13;30.10;;;;;;;-1.26;88.23;99046.19;5138179;27;20503;-58
2024/01/15 02:38:43;;;;;;;63.77;32.33;;;;;;;-1.28;88.08;99042.88;5138604;27;20910;-58
2024/01/15 02:41:14;;;;;;;60.33;31.63;;;;;;;-1.48;87.92;99043.75;5134988;27;20443;-57
2024/01/15 02:43:40;;;;;;;65.83;33.20;;;;;;;-1.54;88.45;99039.09;5135224;27;20428;-57
2024/01/15 02:46:07;;;;;;;65.87;32.27;;;;;;;-1.71;88.15;99040.53;5134302;27;21026;-57
2024/01/15 02:48:34;;;;;;;63.53;33.97;;;;;;;-1.80;88.84;99048.31;5134845;27;20470;-56
2024/01/15 02:51:01;;;;;;;65.13;33.60;;;;;;;-1.85;89.12;99047.84;5134637;27;20474;-56
2024/01/15 02:53:28;;;;;;;61.77;31.47;;;;;;;-1.82;90.49;99037.19;5149065;27;20982;-59
2024/01/15 02:55:54;;;;;;;68.33;34.80;;;;;;;-1.81;89.92;99036.22;5154629;27;21010;-56
2024/01/15 02:58:23;;;;;;;68.63;33.77;;;;;;;-1.86;89.34;99035.81;5155007;27;20438;-56
2024/01/15 03:00:49;;;;;;;69.67;33.13;;;;;;;-1.98;89.01;99026.44;5154870;27;20868;-56
2024/01/15 03:03:16;;;;;;;71.10;33.77;;;;;;;-2.03;89.81;99026.00;5154564;27;20430;-57
2024/01/15 03:05:43;;;;;;;77.93;34.50;;;;;;;-2.07;90.14;99027.19;5155017;27;20434;-57
2024/01/15 03:08:10;;;;;;;68.23;33.60;;;;;;;-2.03;90.37;99023.41;5154848;27;20558;-58
2024/01/15 03:10:36;;;;;;;69.50;34.97;;;;;;;-2.05;89.82;99026.13;5144080;27;20591;-58
2024/01/15 03:13:03;;;;;;;61.70;33.27;;;;;;;-2.10;89.57;99027.44;5134397;27;20435;-58
2024/01/15 03:15:31;;;;;;;63.47;33.47;;;;;;;-2.14;89.43;99029.50;5134259;27;20431;-58
2024/01/15 03:17:58;;;;;;;57.20;30.83;;;;;;;-2.13;90.33;99022.50;5134057;27;21017;-58
2024/01/15 03:20:25;;;;;;;65.00;32.47;;;;;;;-2.21;89.98;99030.94;5134234;27;20439;-56
2024/01/15 03:22:52;;;;;;;61.40;31.93;;;;;;;-2.26;89.82;99040.09;5133831;27;20450;-58
2024/01/15 03:25:18;;;;;;;60.73;30.83;;;;;;;-2.36;90.14;99027.03;5133963;27;20439;-58
2024/01/15 03:27:45;;;;;;;70.00;33.03;;;;;;;-2.38;90.74;99026.31;5139014;27;20439;-57
2024/01/15 03:30:13;;;;;;;65.73;32.50;;;;;;;-2.42;91.61;99016.28;5154316;27;20438;-58
2024/01/15 03:32:41;;;;;;;62.73;32.33;;;;;;;-2.37;92.32;99020.16;5154340;27;21024;-58
2024/01/15 03:35:08;;;;;;;68.27;32.17;;;;;;;-2.35;91.79;99012.25;5154581;27;20459;-58
2024/01/15 03:37:35;;;;;;;61.00;31.17;;;;;;;-2.25;92.10;99000.16;5147532;27;20467;-58
2024/01/15 03:40:02;;;;;;;62.00;31.87;;;;;;;-2.21;91.83;98999.75;5133405;27;20899;-57
2024/01/15 03:42:29;;;;;;;56.67;30.40;;;;;;;-2.28;90.82;99013.41;5133128;27;20447;-59
2024/01/15 03:44:56;;;;;;;64.97;31.33;;;;;;;-2.31;91.25;99026.66;5142446;27;20435;-58
2024/01/15 03:47:22;;;;;;;66.03;32.87;;;;;;;-2.18;92.16;99019.47;5142456;27;20519;-57
2024/01/15 03:49:50;;;;;;;62.43;29.90;;;;;;;-2.09;91.95;99034.28;5133541;27;20446;-58
2024/01/15 03:52:17;;;;;;;53.60;30.13;;;;;;;-2.05;91.44;99038.28;5133152;27;20527;-58
2024/01/15 03:54:44;;;;;;;60.67;29.20;;;;;;;-1.98;90.85;99031.63;5133635;27;20503;-58
2024/01/15 03:57:10;;;;;;;54.97;27.43;;;;;;;-1.89;90.87;99028.25;5133572;27;20504;-57
2024/01/15 03:59:37;;;;;;;49.67;27.87;;;;;;;-1.87;90.57;99023.75;5144661;27;20442;-57
2024/01/15 04:02:05;;;;;;;54.27;28.73;;;;;;;-1.83;90.40;99025.94;5153735;27;20430;-58
2024/01/15 04:04:31;;;;;;;56.77;28.77;;;;;;;-1.80;90.64;99020.50;5153723;27;20455;-57
2024/01/15 04:06:59;;;;;;;58.77;29.87;;;;;;;-1.72;90.39;99019.84;5153286;27;20990;-57
2024/01/15 04:09:26;;;;;;;77.10;36.77;;;;;;;-1.66;90.19;99019.31;5153681;27;20434;-57
2024/01/15 04:11:53;;;;;;;81.30;38.27;;;;;;;-1.55;89.69;99019.22;5153507;27;21073;-58
2024/01/15 04:14:19;;;;;;;58.00;29.40;;;;;;;-1.53;89.33;99012.09;5153907;27;20442;-58
2024/01/15 04:16:46;;;;;;;56.10;30.07;;;;;;;-1.49;89.11;99016.09;5145744;27;20447;-58
2024/01/15 04:19:13;;;;;;;49.40;26.83;;;;;;;-1.52;88.14;99016.34;5132822;27;20934;-57
2024/01/15 04:21:40;;;;;;;56.37;29.63;;;;;;;-1.56;87.48;99027.97;5133109;27;20443;-58
2024/01/15 04:24:08;;;;;;;47.33;25.57;;;;;;;-1.54;87.63;99020.88;5132761;27;20956;-57
2024/01/15 04:26:34;;;;;;;51.43;27.57;;;;;;;-1.48;87.62;99012.53;5132694;27;20796;-57
2024/01/15 04:29:01;;;;;;;49.83;26.13;;;;;;;-1.45;87.70;99005.28;5133043;27;20448;-57
2024/01/15 04:31:28;;;;;;;47.03;26.30;;;;;;;-1.39;87.89;98998.72;5132448;27;20474;-57
2024/01/15 04:33:54;;;;;;;48.77;27.17;;;;;;;-1.38;86.92;98997.75;5133910;27;20439;-57
2024/01/15 04:36:21;;;;;;;49.53;25.93;;;;;;;-1.34;87.28;99001.75;5153368;27;20438;-57
2024/01/15 04:38:48;;;;;;;44.87;26.33;;;;;;;-1.29;87.31;98986.53;5135821;27;20428;-57
2024/01/15 04:41:17;;;;;;;49.13;26.43;;;;;;;-1.34;87.03;98992.13;5132344;28;20443;-57
2024/01/15 04:43:44;;;;;;;48.60;27.33;;;;;;;-1.50;86.76;98991.00;5132909;28;20476;-57
2024/01/15 04:46:11;;;;;;;51.27;27.20;;;;;;;-1.55;87.89;98995.81;5132313;28;20481;-58
2024/01/15 04:48:38;;;;;;;51.27;26.70;;;;;;;-1.55;87.82;99001.00;5132604;28;20488;-57
2024/01/15 04:51:06;;;;;;;55.00;28.47;;;;;;;-1.65;87.77;98974.09;5134523;27;20448;-56
2024/01/15 04:53:33;;;;;;;59.33;27.17;;;;;;;-1.49;88.52;98977.88;5145680;27;20453;-57
2024/01/15 04:56:00;;;;;;;56.40;26.50;;;;;;;-1.49;88.99;98990.06;5152753;27;21028;-57
2024/01/15 04:58:29;;;;;;;51.07;26.03;;;;;;;-1.53;87.82;98991.28;5138837;27;20473;-57
2024/01/15 05:00:55;;;;;;;55.63;26.83;;;;;;;-1.57;87.76;98984.69;5131932;28;20518;-57
2024/01/15 05:03:22;;;;;;;45.23;25.07;;;;;;;-1.65;87.53;98987.13;5132029;28;20864;-57
2024/01/15 05:05:49;;;;;;;59.47;27.30;;;;;;;-1.61;87.86;98991.09;5132313;28;20481;-57
2024/01/15 05:08:15;;;;;;;54.33;26.03;;;;;;;-1.56;87.90;98981.94;5151714;27;20443;-56
2024/01/15 05:10:42;;;;;;;48.80;25.57;;;;;;;-1.52;87.45;98972.91;5152909;27;20446;-56
2024/01/15 05:13:09;;;;;;;60.27;26.53;;;;;;;-1.47;87.09;98964.72;5152959;27;20470;-57
2024/01/15 05:15:37;;;;;;;48.43;23.67;;;;;;;-1.54;86.76;98961.00;5132156;27;20439;-56
2024/01/15 05:18:04;;;;;;;62.93;26.50;;;;;;;-1.55;87.63;98956.75;5132348;27;20480;-56
2024/01/15 05:20:30;;;;;;;49.07;25.50;;;;;;;-1.50;88.09;98955.41;5122565;27;20528;-58
2024/01/15 05:22:57;;;;;;;59.50;27.57;;;;;;;-1.48;88.08;98957.84;5115617;28;20479;-57
2024/01/15 05:25:24;;;;;;;54.23;27.73;;;;;;;-1.46;87.47;98953.34;5147326;27;20450;-57
2024/01/15 05:27:51;;;;;;;64.67;29.93;;;;;;;-1.58;87.07;98949.19;5156747;27;20494;-57
2024/01/15 05:30:17;;;;;;;59.67;30.23;;;;;;;-1.77;86.89;98951.72;5156495;27;20438;-57
2024/01/15 05:32:45;;;;;;;84.47;37.03;;;;;;;-1.94;87.05;98947.16;5141500;27;20475;-57
2024/01/15 05:35:12;;;;;;;78.87;35.07;;;;;;;-2.05;87.54;98942.88;5135586;27;20434;-57
2024/01/15 05:37:40;;;;;;;59.93;31.07;;;;;;;-2.12;88.72;98946.13;5135570;27;21029;-56
2024/01/15 05:40:08;;;;;;;65.60;31.03;;;;;;;-2.13;89.50;98941.88;5134352;27;20507;-57
2024/01/15 05:42:35;;;;;;;243.67;83.47;;;;;;;-2.06;89.82;98940.41;5135951;27;20467;-57
2024/01/15 05:45:04;;;;;;;375.17;119.17;;;;;;;-2.09;89.20;98951.06;5135439;27;20942;-57
2024/01/15 05:47:31;;;;;;;255.30;87.97;;;;;;;-2.16;90.07;98957.75;5135323;27;20447;-57
2024/01/15 05:49:59;;;;;;;290.90;90.20;;;;;;;-2.12;90.60;98956.53;5135676;27;20512;-56
2024/01/15 05:52:26;;;;;;;147.53;51.67;;;;;;;-2.12;90.09;98972.94;5135169;27;20904;-57
2024/01/15 05:54:53;;;;;;;82.20;35.80;;;;;;;-2.22;89.66;98981.66;5135339;27;20522;-57
2024/01/15 05:57:20;;;;;;;71.40;33.43;;;;;;;-2.45;89.79;98977.56;5135206;27;20930;-56
2024/01/15 05:59:46;;;;;;;66.17;34.37;;;;;;;-2.40;90.87;98972.81;5135470;27;20488;-56
2024/01/15 06:02:13;;;;;;;65.67;33.97;;;;;;;-2.38;90.84;98965.69;5154285;27;20450;-56
2024/01/15 06:04:40;;;;;;;83.27;40.90;;;;;;;-2.24;90.58;98967.97;5155889;27;21022;-57
2024/01/15 06:07:08;;;;;;;96.37;44.73;;;;;;;-2.22;90.04;98960.84;5138856;27;20496;-58
2024/01/15 06:09:34;;;;;;;70.83;36.40;;;;;;;-2.15;89.82;98962.00;5134711;27;20868;-57
2024/01/15 06:12:01;;;;;;;63.70;32.50;;;;;;;-2.04;89.94;98948.91;5141110;27;20541;-58
2024/01/15 06:14:28;;;;;;;73.10;33.10;;;;;;;-1.95;89.71;98945.53;5155685;27;20442;-58
2024/01/15 06:16:54;;;;;;;76.33;34.00;;;;;;;-1.85;89.07;98947.19;5155955;27;20434;-58
2024/01/15 06:19:21;;;;;;;73.03;32.27;;;;;;;-1.78;88.88;98960.50;5125888;27;20531;-58
2024/01/15 06:21:48;;;;;;;72.87;31.60;;;;;;;-1.88;88.09;98975.28;5118987;27;20447;-58
2024/01/15 06:24:17;;;;;;;56.07;29.83;;;;;;;-1.99;88.18;98975.34;5135090;27;20855;-58
2024/01/15 06:26:44;;;;;;;50.10;28.53;;;;;;;-2.13;88.26;98986.09;5130976;27;20534;-58
2024/01/15 06:29:11;;;;;;;54.57;27.77;;;;;;;-2.16;88.17;98991.56;5134306;27;20630;-59
2024/01/15 06:31:37;;;;;;;74.27;37.57;;;;;;;-2.18;88.96;98990.84;5133253;27;20504;-58
2024/01/15 06:34:04;;;;;;;92.43;42.70;;;;;;;-2.13;89.45;98971.31;5134214;27;20439;-59
2024/01/15 06:36:31;;;;;;;78.80;42.27;;;;;;;-1.97;89.75;98987.28;5131100;27;20475;-59
2024/01/15 06:38:57;;;;;;;62.67;35.70;;;;;;;-1.80;89.82;98993.66;5130299;27;21475;-58
2024/01/15 06:41:26;;;;;;;78.97;37.83;;;;;;;-1.67;89.57;98983.84;5136875;27;20435;-58
2024/01/15 06:43:52;;;;;;;57.03;31.90;;;;;;;-1.71;87.81;98985.06;5132826;27;20435;-59
2024/01/15 06:46:21;;;;;;;56.90;29.83;;;;;;;-1.59;87.99;98971.00;5140830;27;20434;-58
2024/01/15 06:48:48;;;;;;;48.50;23.57;;;;;;;-1.62;87.55;98976.44;5145272;27;20445;-59
2024/01/15 06:51:15;;;;;;;50.37;26.23;;;;;;;-1.65;86.75;98974.09;5134000;27;20503;-59
2024/01/15 06:53:41;;;;;;;55.30;25.70;;;;;;;-1.52;87.38;98966.88;5132704;27;21005;-59
2024/01/15 06:56:08;;;;;;;43.60;22.40;;;;;;;-1.37;86.94;98976.81;5133111;27;20435;-59
2024/01/15 06:58:37;;;;;;;45.73;24.27;;;;;;;-1.42;86.31;98978.16;5133719;27;20799;-59
2024/01/15 07:01:04;;;;;;;80.20;38.73;;;;;;;-1.57;86.04;98974.25;5139525;27;20435;-59
2024/01/15 07:03:31;;;;;;;83.70;40.13;;;;;;;-1.71;86.20;98952.03;5133417;27;20551;-59
2024/01/15 07:05:57;;;;;;;85.53;38.70;;;;;;;-1.38;87.62;98969.91;5134792;27;20440;-59
2024/01/15 07:08:24;;;;;;;69.10;34.73;;;;;;;-1.23;88.09;98946.91;5150378;27;20961;-59
2024/01/15 07:10:51;;;;;;;69.47;33.23;;;;;;;-1.00;86.26;98974.38;5152983;27;20499;-59
2024/01/15 07:13:18;;;;;;;72.67;38.17;;;;;;;-0.96;85.80;98975.75;5149141;27;20463;-59
2024/01/15 07:15:46;;;;;;;71.97;37.73;;;;;;;-1.04;84.00;98973.00;5133484;27;20435;-58
2024/01/15 07:18:12;;;;;;;77.40;40.63;;;;;;;-1.22;83.90;98964.22;5133165;27;20954;-59
2024/01/15 07:20:39;;;;;;;98.63;56.20;;;;;;;-1.36;85.15;98967.19;5133707;27;20433;-58
2024/01/15 07:23:06;;;;;;;73.67;41.90;;;;;;;-1.27;85.86;98962.00;5133558;27;20189;-58
2024/01/15 07:25:33;;;;;;;106.50;48.97;;;;;;;-1.07;86.59;98966.28;5147730;27;20444;-58
2024/01/15 07:28:00;;;;;;;116.73;53.47;;;;;;;-0.94;86.34;98973.84;5135864;27;20572;-60
2024/01/15 07:30:27;;;;;;;109.37;51.67;;;;;;;-0.88;84.64;98979.31;5132873;27;20444;-59
2024/01/15 07:32:55;;;;;;;92.77;47.37;;;;;;;-1.01;84.39;98977.94;5142332;27;20470;-57
2024/01/15 07:35:22;;;;;;;102.07;50.17;;;;;;;-0.92;85.33;98951.88;5150308;27;20438;-58
2024/01/15 07:37:49;;;;;;;100.90;45.67;;;;;;;-0.60;85.84;98962.03;5132137;27;20463;-59
2024/01/15 07:40:16;;;;;;;83.33;41.70;;;;;;;-0.35;84.08;98980.53;5132085;27;20499;-59
2024/01/15 07:42:42;;;;;;;82.63;44.83;;;;;;;-0.15;83.69;98978.69;5131533;27;20446;-60
2024/01/15 07:45:09;;;;;;;102.07;48.77;;;;;;;0.09;82.75;98986.84;5132288;27;20803;-59
2024/01/15 07:47:36;;;;;;;96.90;48.37;;;;;;;0.24;81.49;98995.84;5133422;27;20484;-59
2024/01/15 07:50:05;;;;;;;99.23;47.47;;;;;;;0.31;81.49;98994.31;5132969;27;20439;-59
2024/01/15 07:52:32;;;;;;;86.23;45.37;;;;;;;0.34;81.29;98991.44;5141926;27;21192;-59
2024/01/15 07:54:59;;;;;;;92.43;42.37;;;;;;;0.39;81.54;98983.97;5153400;27;20443;-59
2024/01/15 07:57:27;;;;;;;85.97;43.97;;;;;;;0.54;81.83;98987.75;5153158;27;20534;-59
2024/01/15 07:59:53;;;;;;;69.33;37.40;;;;;;;0.72;80.32;98996.44;5126958;27;20852;-58
2024/01/15 08:02:21;;;;;;;72.90;35.43;;;;;;;0.63;80.27;98997.34;5132551;27;20447;-60
2024/01/15 08:04:48;;;;;;;76.10;39.07;;;;;;;0.53;80.82;99001.75;5132493;27;20435;-58
2024/01/15 08:07:17;;;;;;;85.80;42.47;;;;;;;0.54;81.61;99007.81;5130352;27;20503;-61
2024/01/15 08:09:44;;;;;;;92.67;40.93;;;;;;;0.94;82.03;99009.09;5127409;27;20936;-58
2024/01/15 08:12:11;;;;;;;83.90;39.00;;;;;;;1.47;81.32;99014.38;5132120;27;20447;-59
2024/01/15 08:14:38;;;;;;;75.50;36.80;;;;;;;2.12;78.44;99033.00;5132579;27;20458;-59
2024/01/15 08:17:05;;;;;;;67.83;37.73;;;;;;;2.78;76.09;99031.38;5132786;27;20461;-58
2024/01/15 08:19:32;;;;;;;108.80;42.97;;;;;;;3.08;75.24;99037.88;5132349;27;20530;-58
2024/01/15 08:21:58;;;;;;;87.60;38.37;;;;;;;3.41;74.87;99035.19;5132946;27;20435;-58
2024/01/15 08:24:26;;;;;;;55.60;31.17;;;;;;;3.75;71.28;99045.53;5132594;27;20503;-59
2024/01/15 08:26:53;;;;;;;54.77;30.93;;;;;;;4.01;69.48;99044.38;5132477;27;20459;-58
2024/01/15 08:29:20;;;;;;;57.87;30.40;;;;;;;4.16;69.21;99058.47;5134862;27;20250;-58
2024/01/15 08:31:47;;;;;;;52.50;28.07;;;;;;;4.26;69.53;99053.06;5129125;27;20281;-59
2024/01/15 08:34:14;;;;;;;58.13;28.63;;;;;;;4.36;68.81;99056.31;5131974;27;20222;-59
2024/01/15 08:36:41;;;;;;;58.90;28.27;;;;;;;4.56;67.83;99050.53;5130283;27;20781;-59
2024/01/15 08:39:08;;;;;;;64.83;29.90;;;;;;;4.35;68.00;99047.63;5132438;27;20177;-59
2024/01/15 08:41:37;;;;;;;45.10;24.40;;;;;;;4.09;69.23;99039.09;5131642;28;20189;-58
2024/01/15 08:44:04;;;;;;;42.13;24.57;;;;;;;3.90;69.91;99026.34;5129119;28;20574;-58
2024/01/15 08:46:30;;;;;;;49.43;26.97;;;;;;;3.66;70.68;99009.75;5129701;28;20673;-58
2024/01/15 08:48:57;;;;;;;49.07;28.67;;;;;;;3.46;71.67;99006.63;5130563;28;20574;-58
2024/01/15 08:51:24;;;;;;;52.20;26.60;;;;;;;3.41;72.46;98981.84;5131725;28;20246;-58
2024/01/15 08:53:50;;;;;;;45.47;24.60;;;;;;;3.42;73.81;98984.31;5134127;27;20696;-59
2024/01/15 08:56:17;;;;;;;43.80;24.83;;;;;;;3.42;72.18;98979.06;5135904;27;20246;-58
2024/01/15 08:58:46;;;;;;;43.60;24.63;;;;;;;3.43;73.15;98964.94;5136415;27;20235;-58
2024/01/15 09:01:12;;;;;;;43.03;24.13;;;;;;;3.60;72.82;98966.56;5135679;27;20431;-58
2024/01/15 09:03:41;;;;;;;61.90;27.47;;;;;;;3.83;70.91;98972.81;5136135;27;20734;-58
2024/01/15 09:06:09;;;;;;;76.77;28.73;;;;;;;4.00;69.05;98974.41;5136265;27;20439;-58
2024/01/15 09:08:36;;;;;;;52.60;28.77;;;;;;;4.16;69.49;98969.13;5133028;27;20744;-59
2024/01/15 09:11:03;;;;;;;49.43;27.50;;;;;;;4.27;69.19;98976.66;5151065;27;20238;-58
2024/01/15 09:13:30;;;;;;;55.87;26.63;;;;;;;4.38;68.43;98973.66;5155051;27;20703;-57
2024/01/15 09:15:59;;;;;;;48.33;27.03;;;;;;;4.41;67.94;98972.53;5141896;27;20258;-57
2024/01/15 09:18:26;;;;;;;88.90;28.17;;;;;;;4.39;68.90;98958.72;5136122;27;20197;-59
2024/01/15 09:20:52;;;;;;;52.33;28.75;;;;;;;4.29;69.00;98969.41;5141920;27;20489;-59
2024/01/15 09:23:19;;;;;;;55.97;28.80;;;;;;;4.28;70.41;98975.66;5135118;27;20201;-60
2024/01/15 09:25:46;;;;;;;54.97;29.60;;;;;;;4.31;69.32;98977.13;5136397;27;20197;-59
2024/01/15 09:28:12;;;;;;;56.63;29.87;;;;;;;4.08;70.50;98948.13;5131773;27;20721;-59
2024/01/15 09:30:39;;;;;;;55.10;26.63;;;;;;;4.03;71.32;98952.25;5135329;27;20189;-59
2024/01/15 09:33:07;;;;;;;50.17;26.17;;;;;;;3.93;71.30;98936.66;5132967;27;20228;-59
2024/01/15 09:35:34;;;;;;;45.03;24.63;;;;;;;3.85;72.39;98930.63;5134892;27;20922;-58
2024/01/15 09:38:01;;;;;;;43.83;25.97;;;;;;;3.80;73.13;98938.19;5132969;27;20217;-60
2024/01/15 09:40:32;;;;;;;40.50;25.80;;;;;;;3.83;72.15;98938.66;5135020;27;20193;-59
2024/01/15 09:42:59;;;;;;;56.90;29.70;;;;;;;3.75;72.56;98930.78;5135666;27;20435;-58
2024/01/15 09:45:26;;;;;;;43.63;25.10;;;;;;;3.69;72.75;98913.09;5136328;27;20182;-58
2024/01/15 09:47:53;;;;;;;48.37;26.43;;;;;;;3.82;73.79;98917.81;5135741;27;20266;-58
2024/01/15 09:50:21;;;;;;;50.97;24.07;;;;;;;4.04;72.71;98920.56;5134921;27;20194;-57
2024/01/15 09:52:50;;;;;;;41.53;24.73;;;;;;;4.27;71.55;98934.59;5135668;27;20198;-59
2024/01/15 09:55:18;;;;;;;50.70;26.10;;;;;;;4.43;69.83;98924.03;5135257;27;20236;-59
2024/01/15 09:57:46;;;;;;;39.53;25.30;;;;;;;4.55;70.95;98896.38;5135709;27;20200;-59
2024/01/15 10:00:14;;;;;;;48.30;25.60;;;;;;;4.69;68.91;98900.88;5133366;27;20217;-59
2024/01/15 10:02:41;;;;;;;48.30;25.27;;;;;;;4.57;68.91;98909.31;5131947;27;20198;-59
2024/01/15 10:05:09;;;;;;;48.67;25.00;;;;;;;4.47;70.17;98900.84;5126520;27;20238;-59
2024/01/15 10:07:39;;;;;;;43.87;25.77;;;;;;;4.45;69.58;98894.94;5132117;27;20228;-59
2024/01/15 10:10:07;;;;;;;42.30;24.80;;;;;;;4.36;70.20;98891.53;5132049;27;20190;-59
2024/01/15 10:12:34;;;;;;;49.10;27.67;;;;;;;4.24;70.15;98882.38;5129846;27;20198;-59
2024/01/15 10:15:00;;;;;;;47.53;24.90;;;;;;;4.18;70.90;98872.56;5132650;27;20210;-59
2024/01/15 10:17:28;;;;;;;55.73;27.47;;;;;;;4.11;71.85;98878.66;5129919;27;20202;-59
2024/01/15 10:19:54;;;;;;;54.50;28.40;;;;;;;4.09;72.66;98865.69;5131610;27;20238;-59
2024/01/15 10:22:21;;;;;;;54.90;26.83;;;;;;;4.18;72.34;98866.47;5144611;27;20256;-59
2024/01/15 10:24:50;;;;;;;55.07;29.07;;;;;;;4.16;73.07;98853.50;5129829;27;20201;-60
2024/01/15 10:27:17;;;;;;;55.07;29.20;;;;;;;4.30;72.84;98844.88;5133455;27;20435;-59
2024/01/15 10:29:44;;;;;;;49.47;28.23;;;;;;;4.45;72.78;98837.91;5145859;27;20193;-59
2024/01/15 10:32:10;;;;;;;48.97;28.23;;;;;;;4.32;72.50;98836.81;5112749;28;20187;-59
2024/01/15 10:34:40;;;;;;;57.13;27.50;;;;;;;4.31;72.40;98817.63;5112667;28;20225;-58
2024/01/15 10:37:08;;;;;;;52.23;29.80;;;;;;;4.32;73.23;98797.41;5133351;27;20313;-58
2024/01/15 10:39:35;;;;;;;58.17;29.00;;;;;;;4.54;72.74;98796.63;5133952;27;20193;-59
2024/01/15 10:42:04;;;;;;;45.47;27.53;;;;;;;4.91;71.55;98786.94;5133975;27;20193;-59
2024/01/15 10:44:31;;;;;;;48.67;28.77;;;;;;;5.22;68.92;98782.38;5134046;27;20202;-59
2024/01/15 10:46:58;;;;;;;50.77;29.53;;;;;;;5.47;68.01;98778.50;5133108;27;20661;-60
2024/01/15 10:49:27;;;;;;;49.93;28.37;;;;;;;5.74;67.25;98784.94;5134408;27;20243;-59
2024/01/15 10:51:54;;;;;;;54.17;31.47;;;;;;;6.09;66.70;98780.75;5133704;27;20192;-59
2024/01/15 10:54:23;;;;;;;49.00;29.23;;;;;;;6.35;65.14;98784.50;5132901;27;20226;-58
2024/01/15 10:56:51;;;;;;;57.10;31.17;;;;;;;6.51;64.43;98788.72;5133774;27;20221;-58
2024/01/15 10:59:21;;;;;;;71.27;36.93;;;;;;;6.44;65.33;98783.38;5130545;27;20233;-58
2024/01/15 11:01:49;;;;;;;62.90;31.17;;;;;;;6.72;65.22;98792.19;5133143;27;20606;-59
2024/01/15 11:04:17;;;;;;;61.33;31.37;;;;;;;6.98;63.01;98796.91;5133348;27;20199;-59
2024/01/15 11:06:45;;;;;;;59.80;30.73;;;;;;;7.21;61.06;98797.47;5133394;27;20684;-58
2024/01/15 11:09:13;;;;;;;57.60;29.03;;;;;;;7.48;60.79;98783.47;5133337;27;20705;-59
2024/01/15 11:11:43;;;;;;;52.43;29.70;;;;;;;7.84;58.60;98778.81;5133316;27;20201;-59
2024/01/15 11:14:09;;;;;;;41.23;26.30;;;;;;;8.18;55.24;98749.63;5133263;27;20795;-58
2024/01/15 11:16:59;;;;;;;45.67;28.37;;;;;;;8.61;55.08;98743.03;5132430;27;20190;-59
2024/01/15 11:19:25;;;;;;;35.77;22.33;;;;;;;8.84;51.95;98724.94;5133263;27;20273;-58